Time;durP1;ratioP1;P1;durP2;ratioP2;P2;SDS_P1;SDS_P2;PMS_P1;PMS_P2;Temp;Humidity;BMP_temperature;BMP_pressure;BME280_temperature;BME280_humidity;BME280_pressure;Samples;Min_cycle;Max_cycle;Signal;HPM_P1;HPM_P2
2024/01/22 00:00:35;;;;;;;7.63;1.42;;;;;;;;;;5122873;27;20524;-76
2024/01/22 00:03:05;;;;;;;8.68;1.15;;;;;;;;;;5123221;27;20047;-77
2024/01/22 00:05:41;;;;;;;9.90;1.80;;;;;;;;;;5122587;27;20050;-77
2024/01/22 00:08:12;;;;;;;15.05;1.73;;;;;;;;;;5123267;27;21049;-77
2024/01/22 00:10:42;;;;;;;13.30;1.40;;;;;;;;;;5123041;28;20669;-77
2024/01/22 00:13:13;;;;;;;12.40;1.40;;;;;;;;;;5122431;28;20405;-77
2024/01/22 00:15:43;;;;;;;11.57;1.48;;;;;;;;;;5123125;28;20047;-76
2024/01/22 00:18:14;;;;;;;9.80;1.00;;;;;;;;;;5123505;28;20039;-77
2024/01/22 00:20:45;;;;;;;11.80;1.48;;;;;;;;;;5122290;28;20066;-76
2024/01/22 00:23:16;;;;;;;10.45;1.45;;;;;;;;;;5122353;28;20050;-76
2024/01/22 00:25:46;;;;;;;9.35;1.40;;;;;;;;;;5121971;28;20047;-76
2024/01/22 00:28:18;;;;;;;11.77;1.30;;;;;;;;;;5123070;28;20051;-76
2024/01/22 00:30:49;;;;;;;22.85;1.85;;;;;;;;;;5121581;27;20409;-76
2024/01/22 00:33:19;;;;;;;18.80;2.85;;;;;;;;;;5127061;27;20414;-76
2024/01/22 00:35:51;;;;;;;12.52;1.80;;;;;;;;;;5126703;27;20046;-76
2024/01/22 00:38:22;;;;;;;10.95;1.25;;;;;;;;;;5126674;27;20043;-76
2024/01/22 00:40:53;;;;;;;14.57;1.95;;;;;;;;;;5126501;27;20664;-76
2024/01/22 00:43:23;;;;;;;11.30;1.73;;;;;;;;;;5126913;27;20035;-76
2024/01/22 00:45:54;;;;;;;14.35;1.73;;;;;;;;;;5127034;27;20035;-75
2024/01/22 00:48:25;;;;;;;11.07;1.35;;;;;;;;;;5126047;27;20047;-76
2024/01/22 00:50:57;;;;;;;14.32;1.50;;;;;;;;;;5125342;27;20047;-75
2024/01/22 00:53:28;;;;;;;9.00;1.35;;;;;;;;;;5125663;27;20051;-76
2024/01/22 00:55:58;;;;;;;11.38;1.27;;;;;;;;;;5125384;27;20054;-75
2024/01/22 00:58:28;;;;;;;10.73;1.75;;;;;;;;;;5125923;27;20039;-75
2024/01/22 01:00:59;;;;;;;11.32;1.25;;;;;;;;;;5125949;27;20061;-76
2024/01/22 01:03:29;;;;;;;9.35;1.15;;;;;;;;;;5126009;27;20101;-75
2024/01/22 01:05:59;;;;;;;8.85;1.23;;;;;;;;;;5126479;27;20062;-77
2024/01/22 01:08:30;;;;;;;11.60;1.63;;;;;;;;;;5126530;27;20066;-75
2024/01/22 01:11:01;;;;;;;11.93;1.40;;;;;;;;;;5125867;27;20515;-75
2024/01/22 01:13:32;;;;;;;12.75;1.88;;;;;;;;;;5126344;27;20967;-75
2024/01/22 01:16:03;;;;;;;21.88;1.92;;;;;;;;;;5125764;27;20470;-76
2024/01/22 01:18:33;;;;;;;15.98;2.28;;;;;;;;;;5126234;27;20752;-75
2024/01/22 01:21:04;;;;;;;10.40;1.55;;;;;;;;;;5125997;27;20051;-75
2024/01/22 01:23:36;;;;;;;6.28;1.00;;;;;;;;;;5125811;27;20043;-76
2024/01/22 01:26:06;;;;;;;16.10;1.73;;;;;;;;;;5124071;27;20059;-76
2024/01/22 01:28:36;;;;;;;11.38;1.33;;;;;;;;;;5125858;27;20055;-76
2024/01/22 01:31:07;;;;;;;11.00;1.45;;;;;;;;;;5124586;27;20050;-75
2024/01/22 01:33:38;;;;;;;13.93;1.60;;;;;;;;;;5126424;27;20051;-75
2024/01/22 01:36:08;;;;;;;6.78;1.30;;;;;;;;;;5123956;27;20047;-78
2024/01/22 01:38:38;;;;;;;13.63;1.67;;;;;;;;;;5125667;27;20047;-75
2024/01/22 01:41:11;;;;;;;7.50;1.35;;;;;;;;;;5125954;27;20039;-77
2024/01/22 01:43:42;;;;;;;8.38;1.13;;;;;;;;;;5125543;27;20054;-75
2024/01/22 01:46:13;;;;;;;11.98;1.27;;;;;;;;;;5125688;27;20051;-75
2024/01/22 01:48:43;;;;;;;12.52;1.67;;;;;;;;;;5125615;27;20043;-75
2024/01/22 01:51:15;;;;;;;7.80;1.00;;;;;;;;;;5125073;27;20489;-76
2024/01/22 01:53:47;;;;;;;12.68;1.55;;;;;;;;;;5124988;27;20047;-75
2024/01/22 01:56:19;;;;;;;10.80;1.15;;;;;;;;;;5125388;27;20043;-75
2024/01/22 01:58:50;;;;;;;13.85;1.30;;;;;;;;;;5125353;27;20043;-76
2024/01/22 02:01:21;;;;;;;9.90;1.30;;;;;;;;;;5124703;27;20039;-75
2024/01/22 02:03:52;;;;;;;7.28;1.20;;;;;;;;;;5124904;27;20500;-76
2024/01/22 02:06:23;;;;;;;11.50;1.80;;;;;;;;;;5124110;27;20050;-76
2024/01/22 02:08:53;;;;;;;18.58;1.80;;;;;;;;;;5123985;27;20050;-75
2024/01/22 02:11:24;;;;;;;10.57;1.25;;;;;;;;;;5123789;27;20058;-75
2024/01/22 02:13:56;;;;;;;7.80;1.20;;;;;;;;;;5124597;27;20051;-76
2024/01/22 02:16:26;;;;;;;10.90;1.10;;;;;;;;;;5124093;27;20054;-75
2024/01/22 02:18:56;;;;;;;12.00;1.33;;;;;;;;;;5124723;27;20051;-75
2024/01/22 02:21:27;;;;;;;11.82;1.23;;;;;;;;;;5124516;27;20680;-75
2024/01/22 02:23:59;;;;;;;10.32;1.60;;;;;;;;;;5124974;27;20393;-76
2024/01/22 02:26:29;;;;;;;10.60;1.73;;;;;;;;;;5124485;27;20047;-74
2024/01/22 02:29:04;;;;;;;15.52;1.77;;;;;;;;;;5124916;27;20614;-75
2024/01/22 02:31:34;;;;;;;9.60;1.73;;;;;;;;;;5124804;27;20043;-75
2024/01/22 02:34:04;;;;;;;13.13;1.60;;;;;;;;;;5124231;27;20046;-76
2024/01/22 02:36:35;;;;;;;13.45;1.45;;;;;;;;;;5124906;27;20046;-76
2024/01/22 02:39:06;;;;;;;8.38;1.10;;;;;;;;;;5124381;27;20043;-75
2024/01/22 02:41:36;;;;;;;16.13;2.25;;;;;;;;;;5124034;27;20050;-76
2024/01/22 02:44:07;;;;;;;11.75;1.80;;;;;;;;;;5124886;27;20043;-75
2024/01/22 02:46:38;;;;;;;16.73;2.97;;;;;;;;;;5124230;27;20054;-75
2024/01/22 02:49:09;;;;;;;14.40;1.63;;;;;;;;;;5124207;27;20050;-75
2024/01/22 02:51:43;;;;;;;12.77;1.65;;;;;;;;;;5124243;27;20637;-75
2024/01/22 02:54:16;;;;;;;17.35;1.55;;;;;;;;;;5123686;27;20062;-75
2024/01/22 02:56:47;;;;;;;9.23;2.08;;;;;;;;;;5124730;27;20047;-75
2024/01/22 02:59:19;;;;;;;10.48;1.58;;;;;;;;;;5123963;27;20043;-75
2024/01/22 03:01:50;;;;;;;11.32;1.20;;;;;;;;;;5122321;27;20050;-75
2024/01/22 03:04:20;;;;;;;15.25;1.73;;;;;;;;;;5124583;27;20054;-75
2024/01/22 03:06:51;;;;;;;16.08;2.28;;;;;;;;;;5124100;27;20043;-75
2024/01/22 03:09:22;;;;;;;11.00;1.50;;;;;;;;;;5123882;27;20137;-76
2024/01/22 03:11:53;;;;;;;10.48;1.50;;;;;;;;;;5123908;27;20047;-75
2024/01/22 03:14:24;;;;;;;10.77;1.52;;;;;;;;;;5123539;27;20047;-75
2024/01/22 03:16:55;;;;;;;10.85;1.42;;;;;;;;;;5123209;27;20055;-75
2024/01/22 03:19:26;;;;;;;11.45;1.50;;;;;;;;;;5123595;27;20055;-75
2024/01/22 03:21:57;;;;;;;9.45;1.35;;;;;;;;;;5123246;27;20390;-75
2024/01/22 03:24:28;;;;;;;8.15;1.20;;;;;;;;;;5124240;27;20050;-75
2024/01/22 03:27:01;;;;;;;8.13;1.05;;;;;;;;;;5123425;27;20047;-75
2024/01/22 03:29:33;;;;;;;12.52;1.40;;;;;;;;;;5123846;27;20054;-75
2024/01/22 03:32:05;;;;;;;11.77;2.45;;;;;;;;;;5124303;27;20524;-75
2024/01/22 03:34:36;;;;;;;16.17;1.50;;;;;;;;;;5123632;27;20046;-75
2024/01/22 03:37:06;;;;;;;11.40;1.70;;;;;;;;;;5123830;27;20075;-75
2024/01/22 03:39:38;;;;;;;9.80;1.88;;;;;;;;;;5123189;27;20055;-75
2024/01/22 03:42:11;;;;;;;13.10;2.00;;;;;;;;;;5123065;27;20035;-75
2024/01/22 03:44:42;;;;;;;11.85;1.88;;;;;;;;;;5122807;27;20046;-75
2024/01/22 03:47:13;;;;;;;7.95;1.48;;;;;;;;;;5123125;27;20039;-75
2024/01/22 03:49:44;;;;;;;8.50;1.25;;;;;;;;;;5123596;27;20043;-76
2024/01/22 03:52:16;;;;;;;13.65;1.70;;;;;;;;;;5123501;27;20051;-75
2024/01/22 03:54:46;;;;;;;16.10;1.77;;;;;;;;;;5123005;27;20054;-75
2024/01/22 03:57:17;;;;;;;13.80;2.40;;;;;;;;;;5123046;27;20050;-75
2024/01/22 03:59:48;;;;;;;12.13;1.85;;;;;;;;;;5123163;27;20054;-75
2024/01/22 04:02:19;;;;;;;10.77;2.03;;;;;;;;;;5120458;27;20441;-75
2024/01/22 04:04:53;;;;;;;15.60;1.50;;;;;;;;;;5122457;27;20058;-76
2024/01/22 04:07:23;;;;;;;14.65;1.40;;;;;;;;;;5121611;27;20047;-75
2024/01/22 04:09:54;;;;;;;17.55;1.80;;;;;;;;;;5121511;27;20409;-77
2024/01/22 04:12:25;;;;;;;19.92;1.90;;;;;;;;;;5122918;28;20043;-75
2024/01/22 04:14:55;;;;;;;12.80;1.15;;;;;;;;;;5120509;28;20062;-75
2024/01/22 04:17:25;;;;;;;18.42;1.65;;;;;;;;;;5122725;28;20405;-75
2024/01/22 04:19:56;;;;;;;10.55;1.35;;;;;;;;;;5121480;28;20058;-75
2024/01/22 04:22:27;;;;;;;15.98;1.33;;;;;;;;;;5122765;28;20050;-75
2024/01/22 04:24:58;;;;;;;13.68;1.30;;;;;;;;;;5123468;28;20061;-75
2024/01/22 04:27:28;;;;;;;12.60;1.40;;;;;;;;;;5123620;28;20085;-75
2024/01/22 04:29:59;;;;;;;10.50;1.45;;;;;;;;;;5122592;28;20497;-75
2024/01/22 04:32:30;;;;;;;9.98;1.25;;;;;;;;;;5122546;28;20056;-75
2024/01/22 04:35:02;;;;;;;18.23;2.22;;;;;;;;;;5122260;28;20055;-75
2024/01/22 04:37:33;;;;;;;7.68;1.40;;;;;;;;;;5122204;28;20058;-75
2024/01/22 04:40:12;;;;;;;11.55;1.23;;;;;;;;;;5122666;28;20043;-75
2024/01/22 04:42:46;;;;;;;9.63;1.45;;;;;;;;;;5122855;28;20516;-76
2024/01/22 04:45:17;;;;;;;11.25;1.38;;;;;;;;;;5122636;28;20596;-76
2024/01/22 04:47:47;;;;;;;11.77;1.45;;;;;;;;;;5122499;28;20797;-75
2024/01/22 04:50:18;;;;;;;16.30;1.85;;;;;;;;;;5121855;28;20043;-75
2024/01/22 04:52:49;;;;;;;19.35;1.85;;;;;;;;;;5122832;28;20047;-75
2024/01/22 04:55:19;;;;;;;14.60;1.40;;;;;;;;;;5122810;28;20482;-76
2024/01/22 04:57:52;;;;;;;14.43;1.80;;;;;;;;;;5123330;28;20070;-75
2024/01/22 05:00:22;;;;;;;9.23;2.33;;;;;;;;;;5120722;28;20047;-74
2024/01/22 05:02:54;;;;;;;14.63;1.67;;;;;;;;;;5122849;28;20043;-76
2024/01/22 05:05:27;;;;;;;10.23;1.55;;;;;;;;;;5122769;28;20420;-75
2024/01/22 05:07:58;;;;;;;12.43;1.42;;;;;;;;;;5122532;28;20039;-75
2024/01/22 05:10:28;;;;;;;15.07;1.58;;;;;;;;;;5120705;28;20047;-75
2024/01/22 05:12:59;;;;;;;11.18;1.23;;;;;;;;;;5122611;28;20043;-75
2024/01/22 05:15:31;;;;;;;9.85;1.45;;;;;;;;;;5122261;28;20047;-76
2024/01/22 05:18:01;;;;;;;14.85;1.95;;;;;;;;;;5125633;27;20047;-75
2024/01/22 05:20:31;;;;;;;9.73;1.52;;;;;;;;;;5125808;27;20063;-75
2024/01/22 05:23:03;;;;;;;11.13;1.27;;;;;;;;;;5126105;27;20061;-75
2024/01/22 05:25:34;;;;;;;5.85;1.50;;;;;;;;;;5125906;27;20039;-75
2024/01/22 05:28:05;;;;;;;9.13;1.70;;;;;;;;;;5125838;27;20043;-75
2024/01/22 05:30:36;;;;;;;10.80;1.63;;;;;;;;;;5125725;27;20043;-76
2024/01/22 05:33:06;;;;;;;11.23;1.58;;;;;;;;;;5123894;27;20547;-75
2024/01/22 05:35:37;;;;;;;8.57;1.30;;;;;;;;;;5125235;27;20051;-75
2024/01/22 05:38:08;;;;;;;12.38;1.50;;;;;;;;;;5125477;27;20039;-75
2024/01/22 05:40:39;;;;;;;14.15;1.42;;;;;;;;;;5125912;27;20073;-75
2024/01/22 05:43:09;;;;;;;12.77;1.63;;;;;;;;;;5125960;27;20050;-75
2024/01/22 05:45:42;;;;;;;10.60;1.23;;;;;;;;;;5125872;27;20051;-75
2024/01/22 05:48:14;;;;;;;12.05;2.00;;;;;;;;;;5126290;27;20039;-75
2024/01/22 05:50:44;;;;;;;14.13;1.50;;;;;;;;;;5124941;27;20493;-75
2024/01/22 05:53:15;;;;;;;7.82;1.30;;;;;;;;;;5125354;27;20413;-75
2024/01/22 05:55:45;;;;;;;10.57;1.40;;;;;;;;;;5122966;27;20516;-75
2024/01/22 05:58:16;;;;;;;9.75;1.63;;;;;;;;;;5125304;27;20833;-75
2024/01/22 06:00:48;;;;;;;14.20;1.75;;;;;;;;;;5125293;27;20066;-75
2024/01/22 06:03:19;;;;;;;12.18;2.03;;;;;;;;;;5124847;27;21098;-75
2024/01/22 06:05:50;;;;;;;13.82;1.40;;;;;;;;;;5124194;27;20054;-76
2024/01/22 06:08:21;;;;;;;7.50;1.38;;;;;;;;;;5125160;27;20051;-76
2024/01/22 06:10:52;;;;;;;10.57;1.20;;;;;;;;;;5124901;27;20051;-76
2024/01/22 06:13:22;;;;;;;11.25;2.00;;;;;;;;;;5124927;27;20047;-75
2024/01/22 06:15:52;;;;;;;14.40;1.73;;;;;;;;;;5124903;27;20121;-75
2024/01/22 06:18:23;;;;;;;7.70;1.30;;;;;;;;;;5125367;27;20520;-75
2024/01/22 06:20:55;;;;;;;10.57;1.08;;;;;;;;;;5125195;27;20061;-75
2024/01/22 06:23:26;;;;;;;7.03;1.75;;;;;;;;;;5126264;27;20055;-75
2024/01/22 06:25:58;;;;;;;5.05;1.25;;;;;;;;;;5124868;27;20051;-75
2024/01/22 06:28:32;;;;;;;7.82;1.23;;;;;;;;;;5124295;27;20051;-76
2024/01/22 06:31:03;;;;;;;8.57;1.42;;;;;;;;;;5124478;27;20850;-75
2024/01/22 06:33:33;;;;;;;8.50;1.58;;;;;;;;;;5124935;27;20043;-75
2024/01/22 06:36:03;;;;;;;5.90;1.17;;;;;;;;;;5124189;27;20054;-75
2024/01/22 06:38:34;;;;;;;19.08;2.00;;;;;;;;;;5124604;27;20043;-75
2024/01/22 06:41:15;;;;;;;6.18;1.20;;;;;;;;;;5124825;27;20405;-75
2024/01/22 06:43:45;;;;;;;7.45;1.40;;;;;;;;;;5124229;27;20494;-75
2024/01/22 06:46:15;;;;;;;5.57;1.25;;;;;;;;;;5124078;27;20047;-75
2024/01/22 06:48:47;;;;;;;6.53;1.30;;;;;;;;;;5124272;27;20054;-75
2024/01/22 06:51:18;;;;;;;9.45;1.45;;;;;;;;;;5124627;27;20050;-75
2024/01/22 06:53:59;;;;;;;6.20;1.13;;;;;;;;;;5122402;27;20050;-75
2024/01/22 06:56:30;;;;;;;10.70;1.70;;;;;;;;;;5124431;27;20527;-76
2024/01/22 06:59:00;;;;;;;4.75;1.40;;;;;;;;;;5124201;27;20043;-75
2024/01/22 07:01:31;;;;;;;9.55;1.48;;;;;;;;;;5122172;27;20050;-75
2024/01/22 07:04:03;;;;;;;13.35;1.67;;;;;;;;;;5123884;27;20066;-75
2024/01/22 07:06:34;;;;;;;12.02;1.15;;;;;;;;;;5124807;27;20054;-75
2024/01/22 07:09:06;;;;;;;9.73;1.52;;;;;;;;;;5123693;27;20692;-75
2024/01/22 07:11:38;;;;;;;10.45;1.40;;;;;;;;;;5122793;27;20051;-78
2024/01/22 07:14:08;;;;;;;10.00;1.42;;;;;;;;;;5123796;27;20507;-75
2024/01/22 07:16:40;;;;;;;12.43;1.38;;;;;;;;;;5124143;27;20062;-75
2024/01/22 07:19:10;;;;;;;11.20;1.13;;;;;;;;;;5122430;27;20610;-75
2024/01/22 07:21:41;;;;;;;9.60;1.45;;;;;;;;;;5123646;27;20047;-75
2024/01/22 07:24:13;;;;;;;7.22;1.27;;;;;;;;;;5123750;27;20506;-75
2024/01/22 07:26:43;;;;;;;11.82;1.55;;;;;;;;;;5123438;27;20058;-75
2024/01/22 07:29:13;;;;;;;11.50;1.45;;;;;;;;;;5123639;27;20520;-75
2024/01/22 07:31:44;;;;;;;9.45;1.30;;;;;;;;;;5123829;27;20050;-75
2024/01/22 07:34:15;;;;;;;6.68;1.27;;;;;;;;;;5123440;27;20051;-75
2024/01/22 07:36:47;;;;;;;11.95;1.63;;;;;;;;;;5123547;27;20051;-75
2024/01/22 07:39:16;;;;;;;5.80;1.20;;;;;;;;;;5122613;27;20057;-75
2024/01/22 07:41:47;;;;;;;11.95;1.17;;;;;;;;;;5123166;27;20050;-76
2024/01/22 07:44:17;;;;;;;7.13;1.08;;;;;;;;;;5124372;27;20054;-75
2024/01/22 07:46:50;;;;;;;10.43;1.48;;;;;;;;;;5123897;27;20055;-75
2024/01/22 07:49:22;;;;;;;6.80;1.33;;;;;;;;;;5120748;27;20043;-75
2024/01/22 07:51:53;;;;;;;7.95;1.20;;;;;;;;;;5123377;27;20047;-75
2024/01/22 07:54:23;;;;;;;9.82;1.35;;;;;;;;;;5122046;27;20054;-76
2024/01/22 07:56:54;;;;;;;9.98;1.30;;;;;;;;;;5122465;27;20505;-75
2024/01/22 07:59:26;;;;;;;12.32;1.23;;;;;;;;;;5123041;27;20054;-75
2024/01/22 08:01:56;;;;;;;10.70;1.38;;;;;;;;;;5122910;27;20417;-75
2024/01/22 08:04:26;;;;;;;12.75;1.85;;;;;;;;;;5122698;27;20054;-75
2024/01/22 08:07:00;;;;;;;8.75;1.30;;;;;;;;;;5122660;27;20047;-75
2024/01/22 08:09:32;;;;;;;15.70;1.63;;;;;;;;;;5122814;27;20051;-76
2024/01/22 08:12:03;;;;;;;11.30;1.50;;;;;;;;;;5123232;28;20054;-75
2024/01/22 08:14:33;;;;;;;5.97;0.93;;;;;;;;;;5123137;28;20520;-75
2024/01/22 08:17:03;;;;;;;10.85;1.85;;;;;;;;;;5122730;28;20517;-75
2024/01/22 08:19:36;;;;;;;6.95;1.55;;;;;;;;;;5123180;28;20047;-76
2024/01/22 08:22:09;;;;;;;15.57;1.33;;;;;;;;;;5122702;28;20618;-75
2024/01/22 08:24:39;;;;;;;10.48;1.38;;;;;;;;;;5123701;28;20038;-75
2024/01/22 08:27:09;;;;;;;10.43;1.25;;;;;;;;;;5122620;28;20039;-75
2024/01/22 08:29:40;;;;;;;8.27;1.13;;;;;;;;;;5123111;28;20047;-76
2024/01/22 08:32:10;;;;;;;7.57;1.20;;;;;;;;;;5122910;28;20420;-75
2024/01/22 08:34:41;;;;;;;4.97;1.10;;;;;;;;;;5122755;28;20050;-75
2024/01/22 08:37:12;;;;;;;5.65;1.08;;;;;;;;;;5122363;28;20069;-75
2024/01/22 08:39:42;;;;;;;9.98;1.13;;;;;;;;;;5122108;28;20043;-75
2024/01/22 08:42:13;;;;;;;13.20;1.27;;;;;;;;;;5122944;28;20051;-75
2024/01/22 08:44:45;;;;;;;10.23;1.25;;;;;;;;;;5123052;28;20093;-75
2024/01/22 08:47:15;;;;;;;7.28;1.33;;;;;;;;;;5122749;28;20093;-75
2024/01/22 08:49:45;;;;;;;8.82;1.48;;;;;;;;;;5122711;28;20050;-76
2024/01/22 08:52:16;;;;;;;9.10;1.45;;;;;;;;;;5125096;27;20051;-76
2024/01/22 08:54:47;;;;;;;5.65;1.60;;;;;;;;;;5126817;27;20074;-75
2024/01/22 08:57:19;;;;;;;8.20;1.30;;;;;;;;;;5125430;27;20047;-76
2024/01/22 08:59:49;;;;;;;10.15;1.55;;;;;;;;;;5126507;27;20039;-80
2024/01/22 09:02:19;;;;;;;11.48;1.45;;;;;;;;;;5126554;27;20054;-75
2024/01/22 09:04:49;;;;;;;5.80;1.13;;;;;;;;;;5127368;27;20042;-75
2024/01/22 09:07:20;;;;;;;3.75;1.13;;;;;;;;;;5126316;27;20039;-75
2024/01/22 09:09:53;;;;;;;14.43;1.48;;;;;;;;;;5126300;27;20054;-75
2024/01/22 09:12:23;;;;;;;10.55;1.23;;;;;;;;;;5126471;27;20043;-75
2024/01/22 09:14:53;;;;;;;12.38;1.75;;;;;;;;;;5125805;27;20047;-77
2024/01/22 09:17:24;;;;;;;16.92;2.97;;;;;;;;;;5125730;27;20051;-74
2024/01/22 09:19:55;;;;;;;11.38;1.30;;;;;;;;;;5125544;27;20055;-76
2024/01/22 09:22:26;;;;;;;13.20;1.40;;;;;;;;;;5126266;27;20054;-75
2024/01/22 09:24:57;;;;;;;8.85;1.50;;;;;;;;;;5126894;27;20051;-74
2024/01/22 09:27:28;;;;;;;12.43;1.75;;;;;;;;;;5126434;27;20062;-75
2024/01/22 09:29:59;;;;;;;12.98;1.58;;;;;;;;;;5126156;27;20054;-75
2024/01/22 09:32:29;;;;;;;14.40;1.70;;;;;;;;;;5126128;27;20054;-77
2024/01/22 09:34:59;;;;;;;13.23;2.03;;;;;;;;;;5124338;27;20164;-75
2024/01/22 09:37:30;;;;;;;12.60;1.95;;;;;;;;;;5125825;27;20047;-75
2024/01/22 09:40:01;;;;;;;24.02;2.40;;;;;;;;;;5126086;27;20047;-75
2024/01/22 09:42:33;;;;;;;16.02;1.90;;;;;;;;;;5126154;27;20051;-76
2024/01/22 09:45:04;;;;;;;17.92;1.77;;;;;;;;;;5125741;27;20047;-76
2024/01/22 09:47:34;;;;;;;20.30;2.20;;;;;;;;;;5125274;27;20047;-76
2024/01/22 09:50:05;;;;;;;16.08;3.83;;;;;;;;;;5125472;27;20051;-75
2024/01/22 09:52:41;;;;;;;20.67;3.08;;;;;;;;;;5123385;27;20047;-75
2024/01/22 09:55:14;;;;;;;14.07;3.08;;;;;;;;;;5125098;27;20617;-76
2024/01/22 09:57:47;;;;;;;17.73;2.60;;;;;;;;;;5124110;27;20058;-77
2024/01/22 10:00:25;;;;;;;17.58;2.00;;;;;;;;;;5124800;27;20048;-75
2024/01/22 10:03:00;;;;;;;11.38;1.65;;;;;;;;;;5124836;27;20051;-76
2024/01/22 10:05:32;;;;;;;9.40;1.60;;;;;;;;;;5125585;27;20058;-79
2024/01/22 10:08:03;;;;;;;10.57;1.23;;;;;;;;;;5125839;27;20051;-77
2024/01/22 10:10:33;;;;;;;12.82;1.80;;;;;;;;;;5125432;27;20058;-76
2024/01/22 10:13:09;;;;;;;10.77;1.48;;;;;;;;;;5124864;27;20050;-76
2024/01/22 10:15:40;;;;;;;10.88;1.83;;;;;;;;;;5125199;27;20043;-76
2024/01/22 10:18:16;;;;;;;14.00;1.65;;;;;;;;;;5124896;27;20086;-79
2024/01/22 10:20:50;;;;;;;11.93;1.52;;;;;;;;;;5124706;27;20058;-77
2024/01/22 10:23:21;;;;;;;9.00;1.23;;;;;;;;;;5125412;27;20051;-76
2024/01/22 10:25:56;;;;;;;17.65;2.22;;;;;;;;;;5124720;27;20051;-75
2024/01/22 10:28:27;;;;;;;8.57;1.42;;;;;;;;;;5124629;27;20039;-76
2024/01/22 10:31:05;;;;;;;7.32;1.27;;;;;;;;;;5124705;27;20035;-75
2024/01/22 10:33:38;;;;;;;15.02;2.45;;;;;;;;;;5124606;27;20043;-77
2024/01/22 10:36:21;;;;;;;12.18;1.58;;;;;;;;;;5124485;27;20417;-75
2024/01/22 10:39:05;;;;;;;9.90;1.58;;;;;;;;;;5125075;27;20047;-76
2024/01/22 10:41:35;;;;;;;10.50;1.45;;;;;;;;;;5124544;27;21078;-76
2024/01/22 10:44:06;;;;;;;9.00;1.08;;;;;;;;;;5124382;27;20501;-75
2024/01/22 10:46:40;;;;;;;9.18;1.30;;;;;;;;;;5122406;27;20051;-75
2024/01/22 10:49:11;;;;;;;8.18;1.45;;;;;;;;;;5124819;27;20043;-76
2024/01/22 10:51:43;;;;;;;9.30;1.17;;;;;;;;;;5124645;27;20066;-77
2024/01/22 10:54:14;;;;;;;10.98;1.00;;;;;;;;;;5124526;27;20047;-75
2024/01/22 10:56:51;;;;;;;6.28;1.38;;;;;;;;;;5124233;27;20799;-79
2024/01/22 10:59:21;;;;;;;11.77;1.58;;;;;;;;;;5124546;27;20038;-75
2024/01/22 11:01:54;;;;;;;14.20;2.38;;;;;;;;;;5124613;27;20047;-78
2024/01/22 11:04:31;;;;;;;9.07;1.35;;;;;;;;;;5125116;27;20043;-76
2024/01/22 11:07:06;;;;;;;5.97;1.02;;;;;;;;;;5123610;27;20050;-76
2024/01/22 11:09:39;;;;;;;11.80;1.70;;;;;;;;;;5123690;27;20047;-75
2024/01/22 11:12:14;;;;;;;8.32;1.02;;;;;;;;;;5124193;27;20043;-76
2024/01/22 11:14:46;;;;;;;11.07;1.65;;;;;;;;;;5121189;27;20062;-75
2024/01/22 11:17:19;;;;;;;13.18;1.55;;;;;;;;;;5124031;27;20054;-76
2024/01/22 11:19:50;;;;;;;10.30;1.58;;;;;;;;;;5123936;27;20441;-75
2024/01/22 11:22:23;;;;;;;23.20;2.50;;;;;;;;;;5123649;27;20050;-75
2024/01/22 11:25:02;;;;;;;12.88;1.50;;;;;;;;;;5122839;27;20054;-76
2024/01/22 11:27:43;;;;;;;11.82;2.05;;;;;;;;;;5123567;27;20054;-77
2024/01/22 11:30:23;;;;;;;12.32;1.40;;;;;;;;;;5123891;27;20552;-76
2024/01/22 11:32:54;;;;;;;10.60;1.40;;;;;;;;;;5123216;27;20532;-76
2024/01/22 11:35:38;;;;;;;6.53;1.30;;;;;;;;;;5123878;27;20050;-76
2024/01/22 11:38:14;;;;;;;10.75;1.25;;;;;;;;;;5121936;27;20042;-75
2024/01/22 11:40:54;;;;;;;13.35;1.63;;;;;;;;;;5122998;27;20043;-76
2024/01/22 11:43:25;;;;;;;10.57;1.45;;;;;;;;;;5124253;27;20051;-85
2024/01/22 11:45:57;;;;;;;12.90;2.00;;;;;;;;;;5123241;27;20067;-77
2024/01/22 11:48:31;;;;;;;16.35;2.97;;;;;;;;;;5123069;27;20075;-75
2024/01/22 11:51:05;;;;;;;6.75;1.15;;;;;;;;;;5122885;27;20047;-76
2024/01/22 11:53:54;;;;;;;8.57;1.63;;;;;;;;;;5123215;27;20486;-76
2024/01/22 11:56:26;;;;;;;14.38;1.60;;;;;;;;;;5121135;27;20051;-76
2024/01/22 11:59:05;;;;;;;13.23;1.75;;;;;;;;;;5120910;27;20065;-75
2024/01/22 12:01:35;;;;;;;19.67;2.30;;;;;;;;;;5123674;27;20039;-76
2024/01/22 12:04:11;;;;;;;12.23;1.58;;;;;;;;;;5123270;27;20043;-76
2024/01/22 12:06:50;;;;;;;9.25;1.63;;;;;;;;;;5122947;27;20047;-80
2024/01/22 12:09:22;;;;;;;8.57;1.40;;;;;;;;;;5122941;27;20069;-75
2024/01/22 12:11:53;;;;;;;10.00;1.20;;;;;;;;;;5123332;27;20039;-76
2024/01/22 12:14:24;;;;;;;10.65;1.42;;;;;;;;;;5123406;28;20051;-81
2024/01/22 12:17:05;;;;;;;8.23;1.25;;;;;;;;;;5123114;28;20576;-76
2024/01/22 12:19:35;;;;;;;9.57;1.50;;;;;;;;;;5122727;28;20437;-78
2024/01/22 12:22:07;;;;;;;13.40;1.42;;;;;;;;;;5123235;28;20512;-82
2024/01/22 12:24:37;;;;;;;8.98;1.27;;;;;;;;;;5123175;28;20043;-76
2024/01/22 12:27:08;;;;;;;7.32;1.00;;;;;;;;;;5126491;27;20058;-77
2024/01/22 12:29:40;;;;;;;12.38;1.38;;;;;;;;;;5127622;27;20046;-76
2024/01/22 12:32:11;;;;;;;11.02;1.40;;;;;;;;;;5126975;27;20054;-79
2024/01/22 12:34:41;;;;;;;9.00;1.60;;;;;;;;;;5126157;27;20058;-76
2024/01/22 12:37:18;;;;;;;12.60;1.77;;;;;;;;;;5126592;27;20055;-79
2024/01/22 12:39:49;;;;;;;7.07;0.93;;;;;;;;;;5126962;27;20043;-76
2024/01/22 12:42:21;;;;;;;10.02;1.20;;;;;;;;;;5126901;27;20051;-76
2024/01/22 12:45:00;;;;;;;9.80;1.30;;;;;;;;;;5126551;27;20050;-76
2024/01/22 12:47:33;;;;;;;8.95;1.27;;;;;;;;;;5126585;27;20051;-76
2024/01/22 12:50:07;;;;;;;11.45;1.67;;;;;;;;;;5126353;27;20602;-76
2024/01/22 12:52:40;;;;;;;14.68;2.10;;;;;;;;;;5126615;27;20051;-75
2024/01/22 12:55:13;;;;;;;9.70;1.30;;;;;;;;;;5127559;27;20374;-76
2024/01/22 12:57:45;;;;;;;13.85;1.88;;;;;;;;;;5126975;27;20043;-76
2024/01/22 13:00:18;;;;;;;11.85;1.48;;;;;;;;;;5127191;27;20515;-76
2024/01/22 13:02:49;;;;;;;13.13;1.40;;;;;;;;;;5126979;27;20039;-75
2024/01/22 13:05:20;;;;;;;12.40;1.83;;;;;;;;;;5126136;27;20584;-75
2024/01/22 13:07:51;;;;;;;12.05;1.73;;;;;;;;;;5126269;27;20056;-77
2024/01/22 13:10:22;;;;;;;8.73;1.58;;;;;;;;;;5126134;27;20058;-76
2024/01/22 13:12:52;;;;;;;9.77;1.60;;;;;;;;;;5126215;27;20039;-81
2024/01/22 13:15:24;;;;;;;10.40;1.50;;;;;;;;;;5126013;27;20505;-79
2024/01/22 13:17:56;;;;;;;16.13;1.77;;;;;;;;;;5125675;27;20050;-77
2024/01/22 13:20:27;;;;;;;11.30;1.60;;;;;;;;;;5124782;27;20062;-76
2024/01/22 13:22:58;;;;;;;9.48;1.48;;;;;;;;;;5124082;27;20054;-76
2024/01/22 13:25:31;;;;;;;12.32;2.22;;;;;;;;;;5126614;27;20047;-79
2024/01/22 13:28:02;;;;;;;11.88;1.80;;;;;;;;;;5126246;27;20051;-77
2024/01/22 13:30:36;;;;;;;12.57;1.40;;;;;;;;;;5124744;27;20051;-76
2024/01/22 13:33:08;;;;;;;9.55;1.25;;;;;;;;;;5125781;27;20043;-76
2024/01/22 13:35:38;;;;;;;18.15;2.95;;;;;;;;;;5125919;27;20670;-78
2024/01/22 13:38:09;;;;;;;10.98;1.85;;;;;;;;;;5124884;27;20039;-76
2024/01/22 13:40:42;;;;;;;9.65;1.38;;;;;;;;;;5125886;27;20413;-76
2024/01/22 13:43:12;;;;;;;17.35;1.60;;;;;;;;;;5125335;27;20505;-75
2024/01/22 13:45:42;;;;;;;15.15;2.28;;;;;;;;;;5124885;27;20524;-80
2024/01/22 13:48:14;;;;;;;11.05;2.08;;;;;;;;;;5126271;27;20047;-76
2024/01/22 13:50:44;;;;;;;10.73;1.80;;;;;;;;;;5123144;27;20402;-75
2024/01/22 13:53:16;;;;;;;9.52;1.65;;;;;;;;;;5125197;27;20043;-75
2024/01/22 13:55:46;;;;;;;7.68;1.33;;;;;;;;;;5126242;27;20051;-75
2024/01/22 13:58:16;;;;;;;7.22;1.40;;;;;;;;;;5125223;27;20054;-76
2024/01/22 14:00:47;;;;;;;11.68;1.73;;;;;;;;;;5123852;27;20051;-76
2024/01/22 14:03:17;;;;;;;15.95;2.17;;;;;;;;;;5125698;27;20043;-75
2024/01/22 14:05:49;;;;;;;12.65;1.63;;;;;;;;;;5125806;27;20050;-76
2024/01/22 14:08:20;;;;;;;16.33;1.67;;;;;;;;;;5125216;27;20047;-76
2024/01/22 14:10:50;;;;;;;13.98;1.92;;;;;;;;;;5124987;27;20038;-76
2024/01/22 14:13:22;;;;;;;14.50;1.88;;;;;;;;;;5124894;27;20039;-75
2024/01/22 14:15:53;;;;;;;9.32;2.08;;;;;;;;;;5125356;27;20043;-78
2024/01/22 14:18:26;;;;;;;12.27;1.67;;;;;;;;;;5125847;27;20051;-76
2024/01/22 14:20:57;;;;;;;15.35;1.83;;;;;;;;;;5125150;27;20048;-76
2024/01/22 14:23:29;;;;;;;8.40;1.38;;;;;;;;;;5124626;27;20047;-76
2024/01/22 14:26:10;;;;;;;11.27;1.67;;;;;;;;;;5124658;27;20509;-75
2024/01/22 14:28:41;;;;;;;12.35;1.40;;;;;;;;;;5124690;27;20489;-75
2024/01/22 14:31:11;;;;;;;13.75;1.67;;;;;;;;;;5124619;27;20050;-76
2024/01/22 14:33:42;;;;;;;14.00;1.60;;;;;;;;;;5124521;27;20409;-76
2024/01/22 14:36:14;;;;;;;7.93;1.50;;;;;;;;;;5125161;27;20035;-75
2024/01/22 14:38:45;;;;;;;14.43;2.95;;;;;;;;;;5124542;27;20055;-77
2024/01/22 14:41:17;;;;;;;13.40;1.65;;;;;;;;;;5124411;27;20531;-76
2024/01/22 14:43:48;;;;;;;7.55;1.23;;;;;;;;;;5124625;27;20515;-76
2024/01/22 14:46:19;;;;;;;9.52;1.30;;;;;;;;;;5124604;27;20039;-75
2024/01/22 14:48:50;;;;;;;10.05;1.52;;;;;;;;;;5124632;27;20509;-77
2024/01/22 14:51:34;;;;;;;9.25;1.90;;;;;;;;;;5124783;27;20515;-76
2024/01/22 14:54:06;;;;;;;10.85;1.45;;;;;;;;;;5124535;27;20039;-75
2024/01/22 14:56:37;;;;;;;7.13;1.10;;;;;;;;;;5124581;27;20050;-77
2024/01/22 14:59:08;;;;;;;9.80;1.27;;;;;;;;;;5123983;27;20763;-76